Time;durP1;ratioP1;P1;durP2;ratioP2;P2;SDS_P1;SDS_P2;PMS_P1;PMS_P2;Temp;Humidity;BMP_temperature;BMP_pressure;BME280_temperature;BME280_humidity;BME280_pressure;Samples;Min_cycle;Max_cycle;Signal;HPM_P1;HPM_P2
2022/03/21 00:03:04;;;;;;;;;;;;;;;-0.96;66.47;102714.67;1794468;80;20189;-62
2022/03/21 00:06:08;;;;;;;;;;;;;;;-0.99;66.47;102707.59;1794234;80;20222;-62
2022/03/21 00:09:13;;;;;;;;;;;;;;;-1.03;66.53;102709.08;1794450;80;20198;-61
2022/03/21 00:12:19;;;;;;;;;;;;;;;-1.04;66.71;102696.55;1794438;80;20331;-62
2022/03/21 00:15:23;;;;;;;;;;;;;;;-1.05;66.68;102693.01;1794329;80;20178;-63
2022/03/21 00:18:30;;;;;;;;;;;;;;;-1.07;66.53;102698.88;1771871;80;20210;-63
2022/03/21 00:21:35;;;;;;;;;;;;;;;-1.11;66.46;102690.48;1794342;80;20186;-61
2022/03/21 00:24:41;;;;;;;;;;;;;;;-1.15;66.64;102700.02;1794435;80;20253;-62
2022/03/21 00:27:46;;;;;;;;;;;;;;;-1.14;66.90;102697.29;1805891;77;20178;-61
2022/03/21 00:30:52;;;;;;;;;;;;;;;-1.08;67.07;102704.30;1807322;79;20205;-61
2022/03/21 00:33:58;;;;;;;;;;;;;;;-1.05;67.17;102694.80;1807443;79;20262;-63
2022/03/21 00:37:04;;;;;;;;;;;;;;;-1.05;67.21;102692.12;1807253;79;20201;-62
2022/03/21 00:40:13;;;;;;;;;;;;;;;-1.07;67.13;102691.27;1806760;79;20237;-62
2022/03/21 00:43:22;;;;;;;;;;;;;;;-1.04;67.31;102685.80;1806446;79;20229;-62
2022/03/21 00:46:27;;;;;;;;;;;;;;;-1.02;67.25;102678.58;1807278;78;20205;-61
2022/03/21 00:49:33;;;;;;;;;;;;;;;-1.02;67.24;102675.89;1807316;78;20218;-61
2022/03/21 00:52:37;;;;;;;;;;;;;;;-1.02;67.22;102671.41;1807096;79;20506;-61
2022/03/21 00:55:41;;;;;;;;;;;;;;;-1.01;67.28;102670.47;1807418;78;20304;-62
2022/03/21 00:58:46;;;;;;;;;;;;;;;-0.99;67.21;102659.67;1807453;79;20284;-61
2022/03/21 01:01:51;;;;;;;;;;;;;;;-1.02;67.03;102653.05;1807434;79;20233;-61
2022/03/21 01:04:56;;;;;;;;;;;;;;;-1.04;67.02;102634.73;1807339;79;20186;-63
2022/03/21 01:08:02;;;;;;;;;;;;;;;-1.05;66.93;102637.02;1789334;79;20247;-64
2022/03/21 01:11:09;;;;;;;;;;;;;;;-1.10;66.98;102633.13;1806427;79;20197;-62
2022/03/21 01:14:15;;;;;;;;;;;;;;;-1.12;67.12;102639.46;1807238;78;20319;-62
2022/03/21 01:17:18;;;;;;;;;;;;;;;-1.16;66.96;102640.05;1807487;79;20213;-63
2022/03/21 01:20:25;;;;;;;;;;;;;;;-1.20;67.20;102636.13;1807303;79;20201;-63
2022/03/21 01:23:29;;;;;;;;;;;;;;;-1.19;67.60;102632.53;1807139;79;20201;-63
2022/03/21 01:26:34;;;;;;;;;;;;;;;-1.16;67.74;102627.95;1806472;79;20182;-61
2022/03/21 01:29:39;;;;;;;;;;;;;;;-1.09;67.63;102617.87;1768982;81;20188;-63
2022/03/21 01:32:43;;;;;;;;;;;;;;;-1.09;67.41;102623.23;1807375;79;20276;-62
2022/03/21 01:35:49;;;;;;;;;;;;;;;-1.12;67.31;102620.20;1807438;78;20185;-62
2022/03/21 01:38:56;;;;;;;;;;;;;;;-1.10;67.47;102628.21;1807175;79;20173;-62
2022/03/21 01:42:02;;;;;;;;;;;;;;;-1.11;67.30;102642.59;1787458;79;20177;-63
2022/03/21 01:45:07;;;;;;;;;;;;;;;-1.11;67.40;102639.91;1807548;78;20197;-63
2022/03/21 01:48:12;;;;;;;;;;;;;;;-1.11;67.43;102639.91;1807463;79;20210;-63
2022/03/21 01:51:16;;;;;;;;;;;;;;;-1.10;67.37;102635.82;1806848;79;20197;-62
2022/03/21 01:57:44;;;;;;;;;;;;;;;-1.06;67.45;102633.44;1807529;79;20292;-63
2022/03/21 02:00:51;;;;;;;;;;;;;;;-1.08;67.37;102635.77;1807266;79;20193;-62
2022/03/21 02:03:56;;;;;;;;;;;;;;;-1.11;67.32;102632.69;1807231;79;20506;-62
2022/03/21 02:07:01;;;;;;;;;;;;;;;-1.11;67.36;102626.47;1807348;79;20294;-62
2022/03/21 02:10:06;;;;;;;;;;;;;;;-1.15;67.29;102628.36;1806954;78;20284;-63
2022/03/21 02:13:13;;;;;;;;;;;;;;;-1.21;67.05;102629.00;1807222;79;20296;-63
2022/03/21 02:16:17;;;;;;;;;;;;;;;-1.28;67.26;102623.42;1806601;79;20221;-63
2022/03/21 02:19:31;;;;;;;;;;;;;;;-1.32;67.43;102619.94;1806031;79;20274;-62
2022/03/21 02:22:44;;;;;;;;;;;;;;;-1.36;67.55;102617.39;1807373;79;20270;-60
2022/03/21 02:25:49;;;;;;;;;;;;;;;-1.36;67.73;102626.80;1794692;79;20213;-61
2022/03/21 02:28:56;;;;;;;;;;;;;;;-1.39;67.68;102618.34;1806583;79;20202;-62
2022/03/21 02:32:01;;;;;;;;;;;;;;;-1.43;67.81;102613.12;1806998;79;20205;-62
2022/03/21 02:35:06;;;;;;;;;;;;;;;-1.43;67.97;102609.98;1807275;79;20178;-62
2022/03/21 02:38:13;;;;;;;;;;;;;;;-1.43;67.94;102609.09;1789984;79;20185;-61
2022/03/21 02:41:20;;;;;;;;;;;;;;;-1.43;67.94;102607.74;1807404;78;20257;-61
2022/03/21 02:44:24;;;;;;;;;;;;;;;-1.46;67.95;102603.81;1807475;79;20205;-62
2022/03/21 02:47:28;;;;;;;;;;;;;;;-1.45;68.20;102602.87;1807517;79;20189;-62
2022/03/21 02:50:36;;;;;;;;;;;;;;;-1.46;68.26;102601.12;1807463;78;20576;-62
2022/03/21 02:53:41;;;;;;;;;;;;;;;-1.49;68.21;102599.39;1807365;79;20280;-63
2022/03/21 02:56:45;;;;;;;;;;;;;;;-1.54;68.32;102594.64;1807424;79;20526;-62
2022/03/21 02:59:49;;;;;;;;;;;;;;;-1.57;68.34;102591.57;1807390;78;20178;-61
2022/03/21 03:02:53;;;;;;;;;;;;;;;-1.56;68.67;102585.30;1806243;79;20257;-61
2022/03/21 03:06:00;;;;;;;;;;;;;;;-1.52;68.78;102579.83;1807493;78;20228;-61
2022/03/21 03:09:05;;;;;;;;;;;;;;;-1.49;68.71;102579.73;1807422;79;20519;-63
2022/03/21 03:12:10;;;;;;;;;;;;;;;-1.51;68.53;102593.21;1796239;79;20194;-61
2022/03/21 03:15:16;;;;;;;;;;;;;;;-1.52;68.44;102609.77;1771989;80;20198;-61
2022/03/21 03:18:22;;;;;;;;;;;;;;;-1.48;68.50;102604.31;1772053;81;20198;-62
2022/03/21 03:21:31;;;;;;;;;;;;;;;-1.45;68.58;102598.84;1772437;81;20182;-63
2022/03/21 03:24:36;;;;;;;;;;;;;;;-1.46;68.39;102604.70;1772157;80;20194;-61
2022/03/21 03:27:41;;;;;;;;;;;;;;;-1.52;68.27;102601.72;1772324;80;20253;-62
2022/03/21 03:30:48;;;;;;;;;;;;;;;-1.48;68.64;102594.91;1775161;79;20170;-61
2022/03/21 03:33:54;;;;;;;;;;;;;;;-1.47;68.89;102584.61;1807046;79;20538;-62
2022/03/21 03:36:58;;;;;;;;;;;;;;;-1.46;68.80;102586.35;1806716;79;20546;-61
2022/03/21 03:40:03;;;;;;;;;;;;;;;-1.51;68.51;102586.50;1806392;79;20204;-61
2022/03/21 03:43:10;;;;;;;;;;;;;;;-1.57;68.44;102585.34;1807175;79;20236;-60
2022/03/21 03:46:19;;;;;;;;;;;;;;;-1.61;68.58;102581.86;1807349;78;20261;-62
2022/03/21 03:49:24;;;;;;;;;;;;;;;-1.64;68.58;102582.41;1806823;79;20280;-61
2022/03/21 03:52:29;;;;;;;;;;;;;;;-1.69;68.64;102597.31;1806850;79;20201;-60
2022/03/21 03:55:33;;;;;;;;;;;;;;;-1.69;68.89;102597.31;1806840;78;20257;-60
2022/03/21 03:58:38;;;;;;;;;;;;;;;-1.67;69.14;102586.53;1806862;79;20225;-61
2022/03/21 04:01:44;;;;;;;;;;;;;;;-1.66;69.03;102583.80;1799451;79;20308;-61
2022/03/21 04:04:51;;;;;;;;;;;;;;;-1.63;69.20;102582.81;1806656;79;20217;-61
2022/03/21 04:07:59;;;;;;;;;;;;;;;-1.61;69.27;102575.60;1806816;79;20209;-61
2022/03/21 04:11:06;;;;;;;;;;;;;;;-1.54;69.43;102579.39;1806537;79;20580;-61
2022/03/21 04:14:10;;;;;;;;;;;;;;;-1.52;69.16;102571.77;1807279;79;20209;-62
2022/03/21 04:17:16;;;;;;;;;;;;;;;-1.52;69.13;102575.80;1807503;79;20189;-61
2022/03/21 04:20:23;;;;;;;;;;;;;;;-1.51;69.07;102588.70;1807189;79;20201;-61
2022/03/21 04:23:28;;;;;;;;;;;;;;;-1.48;69.13;102588.20;1806944;79;20197;-61
2022/03/21 04:26:32;;;;;;;;;;;;;;;-1.43;69.30;102595.66;1806518;79;20633;-61
2022/03/21 04:29:38;;;;;;;;;;;;;;;-1.38;69.46;102582.97;1806639;78;20209;-61
2022/03/21 04:32:44;;;;;;;;;;;;;;;-1.29;69.72;102577.31;1806046;79;20213;-61
2022/03/21 04:35:49;;;;;;;;;;;;;;;-1.16;69.88;102586.76;1806806;79;20261;-62
2022/03/21 04:38:53;;;;;;;;;;;;;;;-1.07;69.92;102578.39;1806832;79;20538;-61
2022/03/21 04:41:59;;;;;;;;;;;;;;;-1.00;69.91;102583.52;1807382;79;20185;-63
2022/03/21 04:45:04;;;;;;;;;;;;;;;-0.87;70.06;102584.03;1807400;79;20209;-61
2022/03/21 04:48:09;;;;;;;;;;;;;;;-0.75;69.99;102586.31;1807374;79;20236;-61
2022/03/21 04:51:14;;;;;;;;;;;;;;;-0.64;69.89;102583.69;1806753;79;20272;-61
2022/03/21 04:54:20;;;;;;;;;;;;;;;-0.49;69.84;102581.80;1807290;78;20181;-60
2022/03/21 04:57:30;;;;;;;;;;;;;;;-0.36;69.71;102587.64;1795524;79;20236;-61
2022/03/21 05:00:36;;;;;;;;;;;;;;;-0.21;69.67;102585.78;1789049;78;20227;-62
2022/03/21 05:03:42;;;;;;;;;;;;;;;-0.07;69.56;102587.05;1775084;81;20552;-61
2022/03/21 05:06:47;;;;;;;;;;;;;;;0.10;69.34;102579.70;1774750;81;20334;-61
2022/03/21 05:09:52;;;;;;;;;;;;;;;0.27;69.13;102589.37;1774975;81;20204;-61
2022/03/21 05:12:57;;;;;;;;;;;;;;;0.45;68.91;102583.31;1774968;81;20215;-61
2022/03/21 05:16:01;;;;;;;;;;;;;;;0.63;68.69;102588.02;1775126;81;20254;-62
2022/03/21 05:19:04;;;;;;;;;;;;;;;0.83;68.50;102590.80;1775206;81;20289;-61
2022/03/21 05:22:12;;;;;;;;;;;;;;;1.02;68.32;102593.63;1775221;81;20235;-62
2022/03/21 05:32:05;;;;;;;;;;;;;;;1.59;67.51;102597.98;1774914;80;20191;-61
2022/03/21 05:38:36;;;;;;;;;;;;;;;2.01;67.02;102597.97;1775815;81;20195;-62
2022/03/21 05:41:33;;;;;;;;;;;;;;;2.21;66.72;102592.55;1775376;81;20200;-63
2022/03/21 05:44:37;;;;;;;;;;;;;;;2.41;66.50;102602.00;1775507;79;20211;-62
2022/03/21 05:51:05;;;;;;;;;;;;;;;2.78;66.39;102603.39;1775375;79;20219;-62
2022/03/21 05:54:14;;;;;;;;;;;;;;;2.97;66.41;102606.51;1800502;79;20273;-62
2022/03/21 05:57:19;;;;;;;;;;;;;;;3.16;66.30;102613.26;1805643;79;20360;-62
2022/03/21 06:00:25;;;;;;;;;;;;;;;3.31;66.01;102615.23;1801390;79;20205;-63
2022/03/21 06:03:30;;;;;;;;;;;;;;;3.45;65.80;102611.83;1794140;79;20209;-62
2022/03/21 06:06:37;;;;;;;;;;;;;;;3.54;65.45;102620.37;1805937;79;20208;-63
2022/03/21 06:09:48;;;;;;;;;;;;;;;3.61;64.86;102620.95;1806142;79;20197;-62
2022/03/21 06:12:51;;;;;;;;;;;;;;;3.68;64.45;102624.61;1804335;79;20264;-65
2022/03/21 06:15:57;;;;;;;;;;;;;;;3.77;64.39;102616.05;1773968;79;20848;-64
2022/03/21 06:19:02;;;;;;;;;;;;;;;3.82;63.83;102611.24;1792627;79;20562;-64
2022/03/21 06:22:07;;;;;;;;;;;;;;;3.92;63.82;102612.53;1804827;79;20620;-61
2022/03/21 06:25:13;;;;;;;;;;;;;;;4.04;63.42;102606.97;1787254;79;20511;-63
2022/03/21 06:28:18;;;;;;;;;;;;;;;4.16;63.01;102603.59;1793343;79;20652;-63
2022/03/21 06:31:25;;;;;;;;;;;;;;;4.26;62.68;102596.75;1805430;78;20206;-61
2022/03/21 06:34:34;;;;;;;;;;;;;;;4.37;62.50;102601.11;1768705;81;20196;-63
2022/03/21 06:37:39;;;;;;;;;;;;;;;4.48;62.05;102602.30;1703018;83;20252;-64
2022/03/21 06:40:46;;;;;;;;;;;;;;;4.59;61.82;102603.95;1765854;80;20451;-62
2022/03/21 06:43:50;;;;;;;;;;;;;;;4.69;61.43;102601.61;1768737;81;20200;-63
2022/03/21 06:46:57;;;;;;;;;;;;;;;4.80;61.12;102603.72;1768766;81;20603;-64
2022/03/21 06:50:01;;;;;;;;;;;;;;;4.90;61.08;102600.90;1768960;81;20259;-63
2022/03/21 06:53:05;;;;;;;;;;;;;;;5.01;60.53;102593.88;1769347;81;20199;-61
2022/03/21 06:56:09;;;;;;;;;;;;;;;5.05;59.99;102585.98;1760177;81;20249;-63
2022/03/21 06:59:15;;;;;;;;;;;;;;;5.15;60.02;102587.69;1738012;82;20249;-61
2022/03/21 07:02:20;;;;;;;;;;;;;;;5.25;59.45;102585.70;1738639;82;20217;-66
2022/03/21 07:05:26;;;;;;;;;;;;;;;5.33;59.21;102588.86;1738447;81;20624;-64
2022/03/21 07:08:31;;;;;;;;;;;;;;;5.42;58.88;102586.95;1738814;82;20241;-65
2022/03/21 07:11:37;;;;;;;;;;;;;;;5.56;58.22;102591.59;1739433;82;20273;-65
2022/03/21 07:14:41;;;;;;;;;;;;;;;5.66;57.67;102583.31;1739106;82;20246;-60
2022/03/21 07:17:51;;;;;;;;;;;;;;;5.76;57.43;102586.73;1750650;81;20626;-62
2022/03/21 07:20:56;;;;;;;;;;;;;;;5.91;56.88;102583.63;1738865;82;20246;-61
2022/03/21 07:24:00;;;;;;;;;;;;;;;6.04;56.60;102586.00;1738957;82;20539;-62
2022/03/21 07:27:11;;;;;;;;;;;;;;;6.11;55.99;102588.72;1739235;82;20210;-61
2022/03/21 07:30:19;;;;;;;;;;;;;;;6.19;55.62;102585.05;1739244;82;20237;-62
2022/03/21 07:33:24;;;;;;;;;;;;;;;6.28;55.60;102586.34;1750273;80;20619;-65
2022/03/21 07:36:29;;;;;;;;;;;;;;;6.38;54.96;102595.18;1797354;78;20506;-62
2022/03/21 07:39:39;;;;;;;;;;;;;;;6.47;54.47;102582.36;1805180;78;20194;-63
2022/03/21 07:42:51;;;;;;;;;;;;;;;6.59;54.52;102579.36;1790713;79;20205;-61
2022/03/21 07:49:19;;;;;;;;;;;;;;;6.82;53.65;102576.92;1784330;79;20208;-59
2022/03/21 07:52:27;;;;;;;;;;;;;;;6.98;53.38;102585.85;1805859;79;20599;-63
2022/03/21 07:55:34;;;;;;;;;;;;;;;7.12;53.20;102574.08;1801216;79;20221;-63
2022/03/21 07:58:39;;;;;;;;;;;;;;;7.23;52.25;102579.19;1774286;81;20216;-63
2022/03/21 08:01:45;;;;;;;;;;;;;;;7.33;51.39;102586.27;1786607;79;20209;-60
2022/03/21 08:04:52;;;;;;;;;;;;;;;7.42;50.66;102586.53;1792747;79;20284;-61
2022/03/21 08:07:59;;;;;;;;;;;;;;;7.53;50.70;102583.96;1789780;79;20537;-61
2022/03/21 08:11:04;;;;;;;;;;;;;;;7.63;50.57;102576.92;1798639;79;20205;-61
2022/03/21 08:14:08;;;;;;;;;;;;;;;7.74;50.05;102569.88;1803083;79;20257;-62
2022/03/21 08:17:15;;;;;;;;;;;;;;;7.83;49.65;102571.97;1804286;79;20210;-61
2022/03/21 08:20:21;;;;;;;;;;;;;;;7.93;49.09;102570.38;1805460;79;20553;-63
2022/03/21 08:23:25;;;;;;;;;;;;;;;8.05;48.97;102574.97;1773859;81;20246;-60
2022/03/21 08:26:29;;;;;;;;;;;;;;;8.15;47.87;102572.84;1774666;81;20231;-60
2022/03/21 08:29:36;;;;;;;;;;;;;;;8.25;47.40;102567.66;1774783;81;20279;-61
2022/03/21 08:32:43;;;;;;;;;;;;;;;8.39;47.10;102566.18;1774535;81;20568;-61
2022/03/21 08:35:53;;;;;;;;;;;;;;;8.52;46.65;102560.24;1783560;79;20593;-61
2022/03/21 08:39:05;;;;;;;;;;;;;;;8.64;46.70;102560.75;1762495;79;20603;-61
2022/03/21 08:42:12;;;;;;;;;;;;;;;8.76;46.62;102559.36;1777670;80;20208;-60
2022/03/21 08:45:18;;;;;;;;;;;;;;;8.90;46.80;102565.17;1769553;80;20215;-61
2022/03/21 08:49:23;;;;;;;;;;;;;;;9.02;47.27;102561.05;1796620;80;20561;-61
2022/03/21 08:51:31;;;;;;;;;;;;;;;9.16;47.17;102561.41;1780650;79;20558;-61
2022/03/21 08:54:37;;;;;;;;;;;;;;;9.28;47.17;102567.80;1770924;80;20223;-59
2022/03/21 08:57:42;;;;;;;;;;;;;;;9.37;47.56;102565.25;1789327;80;20209;-61
2022/03/21 09:00:47;;;;;;;;;;;;;;;9.49;45.86;102557.52;1797214;80;20589;-61
2022/03/21 09:03:51;;;;;;;;;;;;;;;9.53;45.01;102558.16;1799435;80;20209;-61
2022/03/21 09:06:58;;;;;;;;;;;;;;;9.55;45.11;102562.52;1793348;80;20243;-58
2022/03/21 09:10:01;;;;;;;;;;;;;;;9.60;44.83;102568.52;1770545;80;20466;-61
2022/03/21 09:13:09;;;;;;;;;;;;;;;9.72;44.66;102547.05;1770834;80;20279;-59
2022/03/21 09:16:15;;;;;;;;;;;;;;;9.86;44.63;102550.96;1766434;81;20238;-60
2022/03/21 09:19:23;;;;;;;;;;;;;;;9.94;43.81;102539.45;1765869;81;20253;-61
2022/03/21 09:22:28;;;;;;;;;;;;;;;10.01;44.22;102542.95;1767458;81;20627;-61
2022/03/21 09:25:34;;;;;;;;;;;;;;;10.09;43.84;102533.67;1787118;79;20675;-61
2022/03/21 09:28:46;;;;;;;;;;;;;;;10.17;43.58;102535.31;1797968;80;20298;-61
2022/03/21 09:31:48;;;;;;;;;;;;;;;10.26;43.29;102515.42;1769821;80;20208;-62
2022/03/21 09:34:53;;;;;;;;;;;;;;;10.39;42.78;102523.03;1767685;81;20215;-61
2022/03/21 09:38:00;;;;;;;;;;;;;;;10.47;41.74;102506.86;1742014;82;20244;-61
2022/03/21 09:41:07;;;;;;;;;;;;;;;10.61;40.84;102492.56;1742272;81;20275;-59
2022/03/21 09:44:16;;;;;;;;;;;;;;;10.70;40.62;102503.64;1741890;80;20522;-62
2022/03/21 09:50:51;;;;;;;;;;;;;;;10.87;39.99;102477.09;1771104;79;20210;-63
2022/03/21 09:53:51;;;;;;;;;;;;;;;10.90;40.02;102477.32;1771222;80;20253;-59
2022/03/21 09:57:02;;;;;;;;;;;;;;;10.94;40.37;102504.86;1767672;80;20213;-59
2022/03/21 10:00:07;;;;;;;;;;;;;;;10.96;40.11;102486.40;1751703;80;20253;-62
2022/03/21 10:03:12;;;;;;;;;;;;;;;10.98;40.02;102483.05;1769150;80;20214;-61
2022/03/21 10:06:33;;;;;;;;;;;;;;;11.05;40.34;102481.55;1766429;79;20528;-62
2022/03/21 10:09:38;;;;;;;;;;;;;;;11.15;39.83;102487.98;1771290;79;20210;-62
2022/03/21 10:12:44;;;;;;;;;;;;;;;11.20;39.65;102482.98;1770816;81;20210;-63
2022/03/21 10:15:49;;;;;;;;;;;;;;;11.22;39.81;102485.99;1771754;79;20210;-61
2022/03/21 10:19:04;;;;;;;;;;;;;;;11.27;40.01;102472.77;1770897;80;20648;-62
2022/03/21 10:22:14;;;;;;;;;;;;;;;11.34;40.34;102469.86;1772073;80;20240;-61
2022/03/21 10:25:21;;;;;;;;;;;;;;;11.37;40.50;102460.00;1772337;79;20212;-61
2022/03/21 10:28:44;;;;;;;;;;;;;;;11.40;40.60;102472.60;1771544;80;20934;-49
2022/03/21 10:31:52;;;;;;;;;;;;;;;11.48;40.94;102455.84;1772870;80;20241;-49
2022/03/21 10:35:02;;;;;;;;;;;;;;;11.62;41.29;102443.17;1771719;80;20206;-49
2022/03/21 10:38:12;;;;;;;;;;;;;;;11.66;41.54;102458.91;1796534;79;20264;-46
2022/03/21 10:41:18;;;;;;;;;;;;;;;11.65;41.93;102432.49;1799636;79;20209;-49
2022/03/21 10:44:27;;;;;;;;;;;;;;;11.74;42.15;102446.77;1774604;81;20598;-50
2022/03/21 10:47:32;;;;;;;;;;;;;;;11.84;42.07;102453.22;1738626;81;20338;-53
2022/03/21 10:50:43;;;;;;;;;;;;;;;11.91;42.23;102444.30;1783379;79;20260;-54
2022/03/21 10:53:48;;;;;;;;;;;;;;;12.00;42.20;102442.11;1799201;79;20212;-53
2022/03/21 10:56:55;;;;;;;;;;;;;;;12.13;42.34;102435.03;1774526;81;20255;-53
2022/03/21 11:00:20;;;;;;;;;;;;;;;12.25;42.14;102435.83;1774391;79;20219;-56
2022/03/21 11:03:25;;;;;;;;;;;;;;;12.33;42.30;102432.77;1773221;81;20199;-55
2022/03/21 11:06:30;;;;;;;;;;;;;;;12.34;42.48;102405.66;1787153;79;20589;-58
2022/03/21 11:09:36;;;;;;;;;;;;;;;12.40;42.66;102403.73;1802039;79;20205;-56
2022/03/21 11:12:46;;;;;;;;;;;;;;;12.53;42.96;102409.86;1795934;79;20209;-55
2022/03/21 11:15:49;;;;;;;;;;;;;;;12.67;42.85;102410.84;1784286;79;20256;-63
2022/03/21 11:18:57;;;;;;;;;;;;;;;12.79;43.13;102408.37;1799591;79;20241;-62
2022/03/21 11:22:02;;;;;;;;;;;;;;;12.97;43.04;102409.93;1796021;79;20581;-63
2022/03/21 11:25:12;;;;;;;;;;;;;;;13.13;42.60;102396.00;1799359;79;20202;-63
2022/03/21 11:28:57;;;;;;;;;;;;;;;13.21;42.58;102383.77;1771493;79;20652;-63
2022/03/21 11:32:23;;;;;;;;;;;;;;;13.34;42.92;102398.12;1803026;79;20217;-64
2022/03/21 11:35:34;;;;;;;;;;;;;;;13.45;42.56;102385.59;1798021;78;20230;-65
2022/03/21 11:38:45;;;;;;;;;;;;;;;13.50;42.60;102386.03;1781937;77;20244;-62
2022/03/21 11:42:12;;;;;;;;;;;;;;;13.66;42.49;102381.79;1803907;79;20244;-64
2022/03/21 11:55:55;;;;;;;;;;;;;;;13.71;42.93;102376.22;1775565;78;20642;-64
2022/03/21 11:59:01;;;;;;;;;;;;;;;13.84;43.14;102371.77;1790589;79;20269;-65
2022/03/21 12:02:20;;;;;;;;;;;;;;;13.96;43.03;102367.81;1796720;79;20195;-71
2022/03/21 12:05:30;;;;;;;;;;;;;;;14.03;43.14;102363.45;1800438;79;20250;-68
2022/03/21 12:08:38;;;;;;;;;;;;;;;14.08;42.86;102379.03;1794345;79;20213;-66
2022/03/21 12:11:48;;;;;;;;;;;;;;;14.01;42.95;102369.12;1806167;79;20802;-64
2022/03/21 12:14:56;;;;;;;;;;;;;;;14.10;43.23;102361.32;1792885;79;20217;-65
2022/03/21 12:18:02;;;;;;;;;;;;;;;14.14;42.92;102371.04;1773743;81;20215;-64
2022/03/21 12:21:11;;;;;;;;;;;;;;;14.03;42.97;102362.08;1800517;79;20197;-63
2022/03/21 12:24:22;;;;;;;;;;;;;;;13.95;43.33;102352.32;1794470;79;20256;-65
2022/03/21 12:27:48;;;;;;;;;;;;;;;13.97;43.61;102373.70;1770540;79;20601;-64
2022/03/21 12:30:53;;;;;;;;;;;;;;;14.04;43.59;102356.92;1761071;81;20216;-65
2022/03/21 12:34:00;;;;;;;;;;;;;;;14.01;43.78;102359.98;1762500;81;20220;-65
2022/03/21 12:37:08;;;;;;;;;;;;;;;14.08;43.96;102352.86;1781910;79;20199;-62
2022/03/21 12:40:19;;;;;;;;;;;;;;;14.20;43.91;102342.00;1767567;80;20223;-62
2022/03/21 12:43:23;;;;;;;;;;;;;;;14.27;43.63;102333.53;1796999;80;20546;-65
2022/03/21 12:46:29;;;;;;;;;;;;;;;14.26;43.77;102348.31;1796933;80;20229;-68
2022/03/21 12:49:55;;;;;;;;;;;;;;;14.23;43.68;102343.07;1782575;79;20198;-63
2022/03/21 12:53:02;;;;;;;;;;;;;;;14.16;43.99;102348.84;1783141;80;20201;-67
2022/03/21 12:56:11;;;;;;;;;;;;;;;14.19;44.19;102341.13;1794599;78;20570;-64
2022/03/21 12:59:14;;;;;;;;;;;;;;;14.33;43.87;102332.92;1788676;80;20198;-67
2022/03/21 13:02:31;;;;;;;;;;;;;;;14.37;43.46;102333.83;1785612;79;20495;-68
2022/03/21 13:12:35;;;;;;;;;;;;;;;14.58;43.85;102321.16;1799666;79;20594;-67
2022/03/21 13:15:40;;;;;;;;;;;;;;;14.54;43.52;102322.52;1799717;78;20209;-67
2022/03/21 13:18:45;;;;;;;;;;;;;;;14.56;43.54;102316.31;1799379;80;20201;-67
2022/03/21 13:21:50;;;;;;;;;;;;;;;14.50;43.52;102308.66;1799233;80;20241;-67
2022/03/21 13:24:55;;;;;;;;;;;;;;;14.43;43.83;102308.41;1799003;78;20451;-66
2022/03/21 13:28:01;;;;;;;;;;;;;;;14.43;43.98;102315.30;1799359;80;20249;-67
2022/03/21 13:31:13;;;;;;;;;;;;;;;14.43;44.10;102310.32;1793041;80;20538;-68
2022/03/21 13:34:22;;;;;;;;;;;;;;;14.60;44.20;102299.83;1794955;80;20209;-69
2022/03/21 13:37:28;;;;;;;;;;;;;;;14.74;43.71;102297.42;1791111;80;20609;-66
2022/03/21 13:40:37;;;;;;;;;;;;;;;14.74;43.65;102303.44;1798027;78;20218;-68
2022/03/21 13:43:43;;;;;;;;;;;;;;;14.74;43.66;102307.56;1800466;80;20210;-71
2022/03/21 13:46:50;;;;;;;;;;;;;;;14.71;43.72;102296.32;1777279;80;20215;-70
2022/03/21 13:50:03;;;;;;;;;;;;;;;14.78;43.50;102292.43;1774604;81;20326;-68
2022/03/21 13:53:12;;;;;;;;;;;;;;;14.79;43.53;102297.78;1774032;81;20584;-66
2022/03/21 13:56:15;;;;;;;;;;;;;;;14.84;43.62;102289.07;1758470;81;20849;-65
2022/03/21 13:59:27;;;;;;;;;;;;;;;14.91;43.25;102295.67;1787181;79;20271;-64
2022/03/21 14:02:37;;;;;;;;;;;;;;;14.77;43.39;102281.06;1786793;79;20307;-66
2022/03/21 14:05:47;;;;;;;;;;;;;;;14.72;43.80;102287.05;1772849;79;20575;-66
2022/03/21 14:09:01;;;;;;;;;;;;;;;14.74;44.02;102289.14;1800431;79;20264;-66
2022/03/21 14:12:15;;;;;;;;;;;;;;;14.85;43.99;102293.55;1783247;79;20213;-65
2022/03/21 14:15:28;;;;;;;;;;;;;;;14.80;43.75;102292.65;1797899;79;20237;-65
2022/03/21 14:18:39;;;;;;;;;;;;;;;14.77;43.65;102297.59;1801519;79;20795;-64
2022/03/21 14:21:51;;;;;;;;;;;;;;;14.68;43.78;102293.03;1775304;79;20264;-66
2022/03/21 14:26:29;;;;;;;;;;;;;;;14.67;44.19;102285.77;1787643;78;20685;-58
2022/03/21 14:28:20;;;;;;;;;;;;;;;14.63;44.38;102285.73;1793679;79;20193;-59
2022/03/21 14:31:29;;;;;;;;;;;;;;;14.62;44.24;102286.73;1786825;79;20239;-58
2022/03/21 14:34:43;;;;;;;;;;;;;;;14.66;44.36;102282.66;1782509;79;20241;-59
2022/03/21 14:37:50;;;;;;;;;;;;;;;14.78;44.35;102285.03;1797400;79;20213;-58
2022/03/21 14:40:58;;;;;;;;;;;;;;;14.84;44.06;102289.07;1772493;79;20560;-58
2022/03/21 14:44:07;;;;;;;;;;;;;;;14.83;44.15;102281.80;1798402;79;20213;-62
2022/03/21 14:47:18;;;;;;;;;;;;;;;14.68;44.45;102282.00;1790340;79;20225;-60
2022/03/21 14:50:27;;;;;;;;;;;;;;;14.65;44.54;102289.22;1805314;79;20244;-61
2022/03/21 14:53:39;;;;;;;;;;;;;;;14.62;44.46;102288.12;1797880;79;20231;-59
2022/03/21 14:56:52;;;;;;;;;;;;;;;14.55;44.43;102290.66;1784689;79;20241;-58
2022/03/21 14:59:59;;;;;;;;;;;;;;;14.63;44.63;102277.47;1806159;78;20514;-59
2022/03/21 15:03:06;;;;;;;;;;;;;;;15.10;44.05;102290.00;1775753;79;20211;-59
2022/03/21 15:06:10;;;;;;;;;;;;;;;15.20;43.16;102288.02;1795810;79;20570;-59
2022/03/21 15:09:19;;;;;;;;;;;;;;;14.75;43.79;102283.97;1796236;79;20217;-60
2022/03/21 15:12:23;;;;;;;;;;;;;;;14.37;44.54;102286.11;1790430;79;20210;-59
2022/03/21 15:15:30;;;;;;;;;;;;;;;14.24;45.20;102285.59;1786979;79;20201;-58
2022/03/21 15:18:37;;;;;;;;;;;;;;;14.47;45.30;102298.83;1796505;78;20201;-60
2022/03/21 15:21:47;;;;;;;;;;;;;;;14.51;45.04;102297.48;1798105;79;20216;-59
2022/03/21 15:24:51;;;;;;;;;;;;;;;14.50;44.94;102310.05;1788757;79;20353;-59
2022/03/21 15:27:58;;;;;;;;;;;;;;;14.32;45.11;102316.00;1756296;79;20260;-59
2022/03/21 15:31:07;;;;;;;;;;;;;;;14.24;45.42;102311.77;1796133;79;20229;-59
2022/03/21 15:34:13;;;;;;;;;;;;;;;14.11;45.72;102314.00;1785203;79;20219;-59
2022/03/21 15:44:07;;;;;;;;;;;;;;;13.43;47.33;102306.94;1792199;79;20535;-58
2022/03/21 15:47:13;;;;;;;;;;;;;;;13.18;47.89;102307.55;1779325;79;20182;-59
2022/03/21 15:50:28;;;;;;;;;;;;;;;12.93;48.50;102310.86;1775991;79;20561;-58
2022/03/21 15:53:34;;;;;;;;;;;;;;;12.70;49.11;102310.78;1790893;78;20310;-58
2022/03/21 15:56:43;;;;;;;;;;;;;;;12.44;49.83;102310.93;1804100;79;20185;-59
2022/03/21 15:59:49;;;;;;;;;;;;;;;12.21;50.59;102308.06;1793624;79;20273;-58
2022/03/21 16:02:55;;;;;;;;;;;;;;;12.02;51.17;102312.45;1789595;79;20587;-58
2022/03/21 16:06:00;;;;;;;;;;;;;;;11.82;51.93;102312.02;1788685;79;20201;-58
2022/03/21 16:09:07;;;;;;;;;;;;;;;11.61;52.56;102315.25;1783108;79;20267;-59
2022/03/21 16:12:16;;;;;;;;;;;;;;;11.45;53.24;102313.97;1792156;79;20225;-64
2022/03/21 16:15:24;;;;;;;;;;;;;;;11.26;53.71;102319.33;1765277;79;20532;-64
2022/03/21 16:18:34;;;;;;;;;;;;;;;11.08;54.36;102309.97;1786562;79;20219;-64
2022/03/21 16:21:39;;;;;;;;;;;;;;;10.92;55.04;102312.28;1800336;79;20481;-65
2022/03/21 16:24:44;;;;;;;;;;;;;;;10.77;55.50;102312.20;1754265;80;20473;-65
2022/03/21 16:27:47;;;;;;;;;;;;;;;10.63;55.98;102321.60;1793036;79;20205;-59
2022/03/21 16:30:54;;;;;;;;;;;;;;;10.50;56.25;102328.61;1792288;79;20345;-59
2022/03/21 16:33:57;;;;;;;;;;;;;;;10.35;56.27;102330.39;1801941;79;20672;-59
2022/03/21 16:37:05;;;;;;;;;;;;;;;10.19;56.61;102330.79;1775682;79;20210;-58
2022/03/21 16:40:08;;;;;;;;;;;;;;;10.04;57.00;102336.09;1773363;79;20562;-59
2022/03/21 16:43:14;;;;;;;;;;;;;;;9.90;57.20;102328.14;1765073;80;20240;-62
2022/03/21 16:46:22;;;;;;;;;;;;;;;9.77;57.45;102326.02;1772288;79;20202;-64
2022/03/21 16:49:30;;;;;;;;;;;;;;;9.65;57.77;102327.02;1772207;79;20210;-59
2022/03/21 16:52:36;;;;;;;;;;;;;;;9.56;58.29;102322.25;1771340;81;20586;-63
2022/03/21 16:55:42;;;;;;;;;;;;;;;9.47;58.50;102321.63;1771717;79;20209;-63